createdAt,value
2024-02-06T00:01:49.959Z,10.68
2024-02-06T00:06:44.912Z,12.15
2024-02-06T00:09:12.442Z,8.95
2024-02-06T00:14:06.665Z,8.90
2024-02-06T00:16:33.418Z,11.85
2024-02-06T00:18:59.994Z,11.32
2024-02-06T00:21:26.613Z,9.35
2024-02-06T00:23:53.077Z,8.55
2024-02-06T00:26:19.533Z,12.38
2024-02-06T00:28:47.786Z,12.48
2024-02-06T00:31:14.729Z,12.80
2024-02-06T00:33:41.497Z,9.30
2024-02-06T00:36:08.426Z,12.57
2024-02-06T00:38:35.161Z,9.88
2024-02-06T00:41:01.718Z,12.18
2024-02-06T00:43:29.158Z,9.95
2024-02-06T00:48:22.902Z,13.70
2024-02-06T00:50:49.938Z,9.52
2024-02-06T00:53:16.607Z,12.32
2024-02-06T00:55:43.158Z,12.48
2024-02-06T00:58:09.971Z,11.77
2024-02-06T01:00:37.430Z,11.02
2024-02-06T01:03:04.106Z,10.52
2024-02-06T01:05:30.832Z,15.93
2024-02-06T01:07:59.454Z,12.35
2024-02-06T01:10:26.222Z,12.35
2024-02-06T01:12:52.936Z,9.80
2024-02-06T01:15:19.628Z,12.55
2024-02-06T01:17:46.402Z,9.23
2024-02-06T01:20:13.275Z,9.50
2024-02-06T01:22:40.057Z,12.00
2024-02-06T01:25:07.011Z,12.52
2024-02-06T01:27:33.522Z,9.52
2024-02-06T01:30:00.228Z,10.32
2024-02-06T01:32:27.109Z,13.05
2024-02-06T01:34:53.736Z,12.38
2024-02-06T01:37:20.421Z,11.60
2024-02-06T01:39:46.987Z,11.50
2024-02-06T01:42:14.297Z,13.25
2024-02-06T01:44:40.731Z,16.20
2024-02-06T01:47:08.868Z,12.77
2024-02-06T01:49:36.886Z,14.90
2024-02-06T01:52:05.756Z,13.63
2024-02-06T01:54:32.250Z,11.32
2024-02-06T01:56:58.943Z,13.57
2024-02-06T01:59:25.926Z,9.20
2024-02-06T02:01:52.542Z,12.02
2024-02-06T02:04:19.831Z,11.27
2024-02-06T02:06:46.932Z,11.38
2024-02-06T02:09:13.716Z,12.13
2024-02-06T02:11:40.220Z,9.57
2024-02-06T02:14:08.216Z,21.85
2024-02-06T02:16:34.910Z,10.30
2024-02-06T02:19:01.867Z,10.50
2024-02-06T02:21:30.632Z,12.90
2024-02-06T02:23:57.328Z,11.50
2024-02-06T02:26:24.591Z,10.52
2024-02-06T02:28:52.159Z,10.48
2024-02-06T02:33:45.914Z,8.68
2024-02-06T02:36:12.856Z,10.70
2024-02-06T02:38:40.876Z,9.85
2024-02-06T02:41:09.684Z,16.33
2024-02-06T02:43:39.236Z,11.55
2024-02-06T02:46:05.907Z,10.57
2024-02-06T02:48:34.193Z,13.43
2024-02-06T02:51:00.675Z,8.40
2024-02-06T02:53:27.373Z,9.52
2024-02-06T02:55:53.885Z,11.25
2024-02-06T02:58:20.337Z,10.05
2024-02-06T03:00:47.042Z,12.73
2024-02-06T03:03:13.659Z,8.10
2024-02-06T03:05:40.353Z,8.52
2024-02-06T03:08:07.289Z,16.85
2024-02-06T03:10:34.089Z,15.57
2024-02-06T03:13:00.707Z,14.82
2024-02-06T03:15:27.437Z,15.20
2024-02-06T03:17:55.663Z,9.52
2024-02-06T03:20:22.279Z,14.50
2024-02-06T03:22:49.607Z,12.63
2024-02-06T03:25:16.709Z,14.57
2024-02-06T03:27:44.567Z,13.90
2024-02-06T03:30:11.655Z,13.98
2024-02-06T03:32:39.550Z,11.32
2024-02-06T03:35:08.410Z,17.40
2024-02-06T03:37:35.302Z,12.50
2024-02-06T03:40:02.132Z,9.00
2024-02-06T03:42:28.963Z,11.70
2024-02-06T03:44:55.546Z,11.55
2024-02-06T03:47:22.521Z,14.00
2024-02-06T03:49:49.464Z,11.20
2024-02-06T03:52:16.228Z,12.73
2024-02-06T03:54:43.024Z,14.98
2024-02-06T03:57:11.549Z,17.70
2024-02-06T03:59:38.327Z,15.82
2024-02-06T04:02:05.493Z,12.68
2024-02-06T04:04:32.176Z,10.98
2024-02-06T04:06:58.972Z,9.50
2024-02-06T04:09:25.524Z,15.45
2024-02-06T04:11:52.284Z,10.95
2024-02-06T04:14:18.987Z,12.02
2024-02-06T04:16:45.766Z,14.90
2024-02-06T04:19:13.269Z,11.82
2024-02-06T04:21:40.171Z,14.65
2024-02-06T04:24:08.924Z,15.32
2024-02-06T04:26:35.659Z,16.92
2024-02-06T04:29:02.097Z,14.52
2024-02-06T04:31:28.483Z,11.32
2024-02-06T04:33:55.250Z,16.77
2024-02-06T04:36:23.888Z,11.82
2024-02-06T04:38:51.167Z,15.30
2024-02-06T04:41:17.805Z,13.45
2024-02-06T04:43:44.962Z,13.50
2024-02-06T04:46:11.472Z,16.38
2024-02-06T04:48:37.970Z,12.98
2024-02-06T04:51:04.601Z,16.30
2024-02-06T04:53:32.915Z,12.85
2024-02-06T04:56:01.001Z,13.23
2024-02-06T04:58:28.031Z,11.57
2024-02-06T05:00:54.549Z,14.00
2024-02-06T05:03:21.281Z,16.45
2024-02-06T05:05:47.842Z,17.67
2024-02-06T05:08:15.615Z,16.65
2024-02-06T05:10:43.222Z,12.75
2024-02-06T05:13:09.780Z,16.95
2024-02-06T05:15:36.292Z,14.55
2024-02-06T05:18:02.867Z,14.75
2024-02-06T05:20:29.508Z,15.15
2024-02-06T05:22:55.917Z,11.63
2024-02-06T05:25:24.685Z,14.88
2024-02-06T05:27:51.915Z,14.05
2024-02-06T05:30:19.424Z,17.08
2024-02-06T05:35:12.462Z,18.83
2024-02-06T05:37:38.993Z,15.90
2024-02-06T05:40:07.731Z,11.73
2024-02-06T05:42:34.271Z,12.77
2024-02-06T05:45:00.718Z,18.15
2024-02-06T05:47:27.346Z,18.75
2024-02-06T05:49:53.983Z,11.98
2024-02-06T05:52:20.499Z,11.60
2024-02-06T05:54:47.462Z,13.27
2024-02-06T05:57:14.139Z,16.85
2024-02-06T05:59:41.402Z,13.00
2024-02-06T06:02:07.952Z,20.13
2024-02-06T06:04:34.624Z,11.85
2024-02-06T06:07:01.322Z,19.13
2024-02-06T06:09:27.843Z,16.25
2024-02-06T06:11:54.297Z,17.05
2024-02-06T06:14:20.694Z,19.40
2024-02-06T06:16:49.060Z,15.95
2024-02-06T06:19:15.733Z,17.05
2024-02-06T06:21:43.974Z,18.23
2024-02-06T06:24:10.733Z,15.77
2024-02-06T06:26:39.240Z,19.10
2024-02-06T06:29:06.153Z,19.10
2024-02-06T06:31:32.916Z,19.58
2024-02-06T06:33:59.730Z,16.27
2024-02-06T06:36:26.486Z,12.52
2024-02-06T06:38:53.059Z,18.75
2024-02-06T06:41:19.582Z,19.05
2024-02-06T06:43:46.288Z,17.83
2024-02-06T06:46:13.254Z,13.38
2024-02-06T06:48:39.890Z,12.80
2024-02-06T06:51:06.957Z,15.07
2024-02-06T06:53:33.514Z,19.83
2024-02-06T06:56:00.251Z,17.33
2024-02-06T06:58:28.266Z,19.15
2024-02-06T07:00:55.033Z,18.15
2024-02-06T07:03:21.703Z,17.35
2024-02-06T07:05:53.647Z,22.30
2024-02-06T07:08:20.278Z,19.08
2024-02-06T07:10:46.998Z,18.67
2024-02-06T07:13:13.553Z,21.08
2024-02-06T07:15:40.023Z,16.15
2024-02-06T07:18:06.677Z,19.40
2024-02-06T07:20:33.249Z,16.50
2024-02-06T07:22:59.667Z,19.45
2024-02-06T07:25:26.245Z,21.08
2024-02-06T07:27:52.805Z,15.48
2024-02-06T07:30:27.484Z,19.73
2024-02-06T07:33:00.799Z,19.92
2024-02-06T07:35:27.428Z,18.08
2024-02-06T07:37:54.327Z,14.95
2024-02-06T07:40:20.954Z,14.55
2024-02-06T07:42:50.744Z,19.65
2024-02-06T07:45:17.224Z,23.77
2024-02-06T07:47:44.950Z,16.90
2024-02-06T07:50:11.550Z,24.05
2024-02-06T07:52:38.251Z,19.83
2024-02-06T07:55:05.623Z,13.95
2024-02-06T07:57:32.149Z,18.52
2024-02-06T07:59:58.567Z,19.65
2024-02-06T08:02:25.161Z,22.25
2024-02-06T08:04:53.812Z,19.08
2024-02-06T08:07:21.850Z,17.02
2024-02-06T08:09:51.363Z,14.50
2024-02-06T08:12:18.061Z,14.02
2024-02-06T08:14:44.640Z,25.92
2024-02-06T08:17:11.338Z,12.45
2024-02-06T08:19:37.884Z,17.88
2024-02-06T08:22:04.600Z,16.83
2024-02-06T08:24:31.343Z,17.42
2024-02-06T08:26:57.935Z,17.13
2024-02-06T08:29:25.852Z,17.27
2024-02-06T08:31:52.505Z,15.18
2024-02-06T08:34:20.609Z,16.75
2024-02-06T08:36:47.280Z,14.85
2024-02-06T08:39:13.817Z,16.27
2024-02-06T08:41:40.329Z,19.08
2024-02-06T08:44:09.761Z,17.77
2024-02-06T08:46:37.427Z,12.45
2024-02-06T08:49:04.318Z,16.75
2024-02-06T08:51:31.782Z,18.17
2024-02-06T08:53:59.314Z,16.63
2024-02-06T08:56:26.274Z,20.20
2024-02-06T08:58:52.951Z,15.48
2024-02-06T09:01:19.532Z,14.18
2024-02-06T09:03:46.481Z,15.40
2024-02-06T09:06:13.200Z,13.35
2024-02-06T09:08:40.989Z,13.13
2024-02-06T09:11:09.274Z,17.52
2024-02-06T09:13:35.774Z,8.88
2024-02-06T09:16:03.326Z,14.48
2024-02-06T09:18:30.507Z,13.38
2024-02-06T09:20:57.027Z,16.05
2024-02-06T09:23:24.491Z,17.50
2024-02-06T09:28:17.796Z,13.65
2024-02-06T09:30:44.570Z,11.40
2024-02-06T09:33:11.122Z,11.60
2024-02-06T09:35:37.726Z,15.90
2024-02-06T09:38:06.334Z,8.63
2024-02-06T09:40:33.798Z,10.68
2024-02-06T09:45:27.525Z,16.65
2024-02-06T09:47:54.089Z,11.48
2024-02-06T09:50:20.685Z,10.18
2024-02-06T09:52:51.503Z,12.32
2024-02-06T09:55:21.248Z,11.55
2024-02-06T09:57:51.885Z,14.57
2024-02-06T10:00:20.827Z,12.85
2024-02-06T10:02:49.783Z,8.93
2024-02-06T10:05:22.794Z,15.00
2024-02-06T10:07:50.333Z,13.50
2024-02-06T10:12:46.436Z,12.02
2024-02-06T10:15:23.449Z,13.65
2024-02-06T10:17:51.328Z,12.70
2024-02-06T10:20:18.496Z,12.05
2024-02-06T10:22:45.778Z,10.07
2024-02-06T10:25:14.670Z,15.32
2024-02-06T10:27:41.414Z,15.77
2024-02-06T10:30:08.304Z,13.70
2024-02-06T10:32:35.593Z,9.93
2024-02-06T10:35:04.328Z,12.63
2024-02-06T10:37:35.670Z,17.58
2024-02-06T10:40:08.891Z,14.38
2024-02-06T10:43:24.382Z,14.57
2024-02-06T10:45:27.394Z,11.50
2024-02-06T10:47:58.475Z,17.88
2024-02-06T10:50:25.209Z,12.50
2024-02-06T10:52:51.736Z,13.75
2024-02-06T10:55:18.252Z,14.23
2024-02-06T10:57:48.277Z,12.50
2024-02-06T11:00:20.138Z,12.38
2024-02-06T11:02:57.573Z,12.82
2024-02-06T11:05:42.686Z,12.77
2024-02-06T11:08:21.240Z,12.50
2024-02-06T11:10:52.733Z,11.70
2024-02-06T11:13:35.008Z,10.77
2024-02-06T11:16:04.179Z,10.32
2024-02-06T11:18:59.507Z,10.45
2024-02-06T11:21:28.917Z,15.13
2024-02-06T11:23:56.205Z,13.25
2024-02-06T11:26:22.693Z,12.00
2024-02-06T11:28:51.324Z,12.50
2024-02-06T11:31:18.093Z,11.07
2024-02-06T11:33:44.683Z,14.55
2024-02-06T11:36:17.362Z,8.70
2024-02-06T11:38:45.355Z,13.48
2024-02-06T11:41:14.797Z,10.82
2024-02-06T11:43:42.185Z,10.18
2024-02-06T11:46:09.224Z,10.07
2024-02-06T11:48:35.827Z,8.68
2024-02-06T11:51:03.504Z,7.90
2024-02-06T11:53:31.468Z,7.20
2024-02-06T11:56:03.045Z,10.52
2024-02-06T11:58:29.780Z,9.32
2024-02-06T12:00:58.001Z,10.00
2024-02-06T12:03:24.548Z,7.88
2024-02-06T12:05:51.266Z,13.30
2024-02-06T12:08:21.947Z,9.95
2024-02-06T12:10:49.273Z,9.13
2024-02-06T12:13:16.353Z,10.93
2024-02-06T12:15:43.166Z,10.60
2024-02-06T12:18:13.750Z,9.85
2024-02-06T12:20:41.827Z,7.18
2024-02-06T12:23:09.833Z,10.02
2024-02-06T12:25:42.073Z,8.70
2024-02-06T12:28:17.482Z,11.52
2024-02-06T12:30:51.612Z,7.93
2024-02-06T12:33:18.602Z,11.18
2024-02-06T12:35:46.145Z,11.88
2024-02-06T12:38:12.690Z,12.73
2024-02-06T12:40:39.565Z,12.13
2024-02-06T12:43:08.364Z,9.13
2024-02-06T12:45:36.334Z,15.18
2024-02-06T12:48:04.061Z,12.35
2024-02-06T12:50:31.462Z,12.48
2024-02-06T12:53:01.496Z,8.75
2024-02-06T12:55:30.595Z,10.65
2024-02-06T12:57:58.135Z,10.10
2024-02-06T13:00:25.439Z,8.73
2024-02-06T13:03:03.088Z,11.75
2024-02-06T13:05:32.876Z,12.93
2024-02-06T13:08:11.809Z,15.50
2024-02-06T13:10:39.244Z,13.50
2024-02-06T13:13:07.072Z,11.60
2024-02-06T13:15:35.387Z,18.95
2024-02-06T13:18:03.460Z,13.68
2024-02-06T13:20:32.502Z,13.40
2024-02-06T13:23:17.247Z,14.65
2024-02-06T13:25:43.892Z,11.43
2024-02-06T13:28:14.298Z,11.15
2024-02-06T13:30:40.893Z,10.65
2024-02-06T13:33:08.756Z,14.88
2024-02-06T13:35:38.852Z,14.75
2024-02-06T13:38:06.000Z,14.88
2024-02-06T13:40:33.156Z,14.25
2024-02-06T13:43:00.116Z,14.40
2024-02-06T13:45:26.998Z,15.77
2024-02-06T13:47:53.565Z,13.43
2024-02-06T13:50:21.965Z,14.23
2024-02-06T13:52:48.795Z,16.50
2024-02-06T13:55:15.683Z,13.75
2024-02-06T13:57:42.587Z,15.90
2024-02-06T14:00:09.664Z,14.55
2024-02-06T14:02:36.131Z,13.40
2024-02-06T14:05:02.797Z,9.48
2024-02-06T14:07:29.479Z,15.52
2024-02-06T14:09:55.928Z,19.88
2024-02-06T14:12:26.752Z,16.30
2024-02-06T14:14:58.555Z,12.00
2024-02-06T14:17:28.132Z,15.82
2024-02-06T14:19:54.842Z,12.18
2024-02-06T14:22:21.449Z,14.45
2024-02-06T14:24:49.001Z,15.95
2024-02-06T14:27:15.790Z,17.40
2024-02-06T14:29:42.740Z,12.35
2024-02-06T14:32:09.602Z,12.02
2024-02-06T14:34:36.647Z,16.70
2024-02-06T14:37:06.992Z,16.35
2024-02-06T14:39:34.051Z,15.85
2024-02-06T14:42:00.920Z,12.13
2024-02-06T14:44:36.507Z,12.82
2024-02-06T14:47:10.259Z,13.07
2024-02-06T14:49:36.746Z,13.27
2024-02-06T14:52:03.409Z,11.15
2024-02-06T14:54:30.000Z,12.75
2024-02-06T14:56:56.446Z,8.77
2024-02-06T14:59:22.857Z,13.27
2024-02-06T15:01:49.390Z,10.35
2024-02-06T15:04:17.322Z,19.27
2024-02-06T15:06:44.001Z,14.27
2024-02-06T15:09:10.891Z,13.23
2024-02-06T15:11:40.562Z,14.95
2024-02-06T15:14:07.267Z,11.60
2024-02-06T15:16:33.811Z,9.75
2024-02-06T15:19:00.454Z,12.98
2024-02-06T15:21:27.151Z,14.63
2024-02-06T15:23:53.686Z,15.85
2024-02-06T15:26:36.096Z,15.52
2024-02-06T15:29:03.135Z,17.52
2024-02-06T15:31:29.823Z,12.45
2024-02-06T15:33:56.496Z,17.25
2024-02-06T15:36:23.230Z,16.45
2024-02-06T15:38:49.713Z,15.60
2024-02-06T15:41:17.484Z,16.27
2024-02-06T15:43:44.148Z,22.38
2024-02-06T15:46:10.827Z,18.40
2024-02-06T15:48:37.992Z,12.93
2024-02-06T15:51:05.206Z,24.35
2024-02-06T15:53:32.357Z,17.30
2024-02-06T15:55:58.864Z,17.38
2024-02-06T15:58:25.426Z,14.82
2024-02-06T16:00:51.898Z,20.13
2024-02-06T16:03:18.324Z,17.38
2024-02-06T16:05:44.852Z,14.75
2024-02-06T16:08:11.623Z,16.60
2024-02-06T16:10:38.180Z,16.15
2024-02-06T16:13:04.805Z,21.45
2024-02-06T16:15:31.247Z,23.55
2024-02-06T16:17:58.069Z,24.70
2024-02-06T16:20:24.681Z,18.10
2024-02-06T16:22:51.348Z,21.65
2024-02-06T16:25:22.982Z,24.38
2024-02-06T16:27:51.944Z,18.05
2024-02-06T16:30:18.414Z,18.55
2024-02-06T16:32:45.043Z,17.88
2024-02-06T16:35:13.450Z,28.13
2024-02-06T16:37:40.762Z,26.67
2024-02-06T16:40:10.039Z,21.27
2024-02-06T16:42:38.052Z,24.48
2024-02-06T16:45:06.037Z,24.38
2024-02-06T16:47:32.611Z,23.23
2024-02-06T16:49:59.085Z,23.67
2024-02-06T16:52:25.595Z,21.48
2024-02-06T16:54:53.897Z,23.45
2024-02-06T16:57:20.344Z,21.60
2024-02-06T16:59:46.857Z,15.25
2024-02-06T17:02:13.451Z,24.25
2024-02-06T17:04:40.080Z,19.40
2024-02-06T17:07:06.666Z,20.10
2024-02-06T17:09:33.154Z,20.23
2024-02-06T17:11:59.619Z,25.45
2024-02-06T17:14:26.434Z,22.08
2024-02-06T17:16:53.834Z,21.90
2024-02-06T17:19:21.306Z,20.70
2024-02-06T17:24:14.129Z,15.82
2024-02-06T17:26:40.504Z,21.20
2024-02-06T17:29:07.068Z,20.63
2024-02-06T17:31:33.575Z,18.60
2024-02-06T17:34:00.376Z,17.30
2024-02-06T17:36:27.116Z,17.70
2024-02-06T17:38:53.648Z,20.08
2024-02-06T17:41:20.146Z,18.20
2024-02-06T17:43:47.029Z,16.45
2024-02-06T17:46:13.918Z,17.75
2024-02-06T17:48:40.423Z,19.20
2024-02-06T17:51:09.009Z,19.38
2024-02-06T17:53:35.937Z,31.30
2024-02-06T17:56:02.701Z,18.27
2024-02-06T17:58:29.239Z,20.85
2024-02-06T18:00:56.063Z,17.17
2024-02-06T18:03:22.644Z,28.42
2024-02-06T18:05:49.073Z,26.13
2024-02-06T18:08:15.672Z,20.73
2024-02-06T18:10:42.212Z,19.25
2024-02-06T18:13:08.736Z,18.75
2024-02-06T18:15:35.251Z,21.17
2024-02-06T18:18:02.460Z,14.45
2024-02-06T18:20:29.237Z,27.20
2024-02-06T18:22:55.700Z,21.08
2024-02-06T18:25:24.245Z,20.88
2024-02-06T18:27:50.784Z,16.92
2024-02-06T18:30:18.876Z,24.52
2024-02-06T18:32:45.488Z,19.75
2024-02-06T18:35:12.403Z,24.08
2024-02-06T18:37:39.149Z,15.02
2024-02-06T18:40:06.375Z,19.67
2024-02-06T18:42:32.857Z,17.13
2024-02-06T18:44:59.323Z,21.77
2024-02-06T18:47:25.891Z,23.17
2024-02-06T18:49:52.506Z,16.38
2024-02-06T18:52:19.108Z,24.17
2024-02-06T18:54:51.451Z,20.95
2024-02-06T18:57:19.199Z,24.02
2024-02-06T18:59:45.668Z,17.02
2024-02-06T19:02:12.355Z,20.20
2024-02-06T19:04:39.259Z,23.88
2024-02-06T19:07:06.026Z,19.02
2024-02-06T19:09:32.616Z,23.58
2024-02-06T19:11:59.140Z,18.65
2024-02-06T19:14:25.679Z,24.15
2024-02-06T19:16:52.194Z,16.27
2024-02-06T19:19:18.798Z,19.40
2024-02-06T19:21:46.088Z,16.85
2024-02-06T19:24:13.465Z,24.35
2024-02-06T19:26:41.466Z,18.73
2024-02-06T19:29:08.056Z,16.98
2024-02-06T19:31:37.295Z,17.10
2024-02-06T19:34:04.469Z,20.15
2024-02-06T19:36:33.908Z,18.08
2024-02-06T19:39:00.296Z,18.33
2024-02-06T19:41:26.895Z,17.60
2024-02-06T19:43:53.895Z,18.58
2024-02-06T19:46:21.516Z,16.63
2024-02-06T19:48:49.397Z,21.60
2024-02-06T19:51:17.749Z,23.02
2024-02-06T19:53:48.249Z,17.20
2024-02-06T19:56:18.060Z,17.23
2024-02-06T19:58:45.077Z,16.27
2024-02-06T20:01:22.183Z,16.00
2024-02-06T20:03:48.959Z,11.77
2024-02-06T20:06:17.956Z,11.82
2024-02-06T20:08:46.052Z,18.45
2024-02-06T20:11:12.913Z,19.95
2024-02-06T20:13:39.552Z,16.25
2024-02-06T20:16:06.944Z,15.40
2024-02-06T20:20:59.847Z,14.38
2024-02-06T20:23:27.490Z,14.77
2024-02-06T20:25:54.139Z,18.27
2024-02-06T20:28:20.674Z,10.65
2024-02-06T20:30:47.155Z,10.63
2024-02-06T20:33:13.755Z,11.25
2024-02-06T20:35:40.294Z,12.80
2024-02-06T20:38:06.694Z,13.10
2024-02-06T20:40:33.428Z,12.20
2024-02-06T20:42:59.868Z,11.70
2024-02-06T20:45:26.488Z,13.57
2024-02-06T20:47:53.755Z,11.30
2024-02-06T20:50:20.841Z,15.80
2024-02-06T20:52:49.612Z,12.68
2024-02-06T20:55:16.163Z,9.80
2024-02-06T20:57:42.627Z,13.48
2024-02-06T21:00:12.540Z,10.93
2024-02-06T21:02:39.941Z,11.63
2024-02-06T21:05:07.162Z,11.15
2024-02-06T21:07:34.503Z,10.93
2024-02-06T21:10:01.556Z,10.13
2024-02-06T21:12:27.991Z,13.13
2024-02-06T21:14:54.574Z,14.63
2024-02-06T21:17:21.319Z,9.80
2024-02-06T21:19:47.928Z,11.15
2024-02-06T21:22:14.736Z,8.70
2024-02-06T21:24:41.207Z,9.65
2024-02-06T21:27:07.775Z,15.35
2024-02-06T21:29:34.311Z,11.02
2024-02-06T21:32:01.310Z,11.02
2024-02-06T21:34:27.815Z,9.48
2024-02-06T21:36:57.131Z,10.60
2024-02-06T21:39:24.026Z,7.82
2024-02-06T21:41:50.526Z,9.27
2024-02-06T21:44:17.062Z,7.57
2024-02-06T21:46:43.549Z,8.10
2024-02-06T21:49:10.237Z,7.25
2024-02-06T21:51:36.890Z,9.05
2024-02-06T21:54:03.504Z,6.20
2024-02-06T21:56:30.105Z,11.18
2024-02-06T21:58:57.056Z,9.02
2024-02-06T22:01:23.961Z,11.60
2024-02-06T22:03:50.527Z,8.00
2024-02-06T22:06:17.251Z,8.13
2024-02-06T22:08:45.758Z,9.95
2024-02-06T22:11:12.332Z,8.10
2024-02-06T22:13:38.903Z,8.93
2024-02-06T22:16:05.626Z,7.70
2024-02-06T22:18:32.120Z,8.00
2024-02-06T22:20:58.676Z,7.63
2024-02-06T22:23:25.171Z,3.53
2024-02-06T22:25:51.725Z,1.90
2024-02-06T22:28:18.173Z,3.92
2024-02-06T22:30:45.131Z,2.70
2024-02-06T22:33:11.860Z,3.65
2024-02-06T22:35:39.529Z,3.97
2024-02-06T22:38:06.083Z,3.75
2024-02-06T22:40:32.670Z,3.45
2024-02-06T22:42:59.213Z,3.58
2024-02-06T22:45:25.732Z,3.85
2024-02-06T22:47:54.528Z,4.30
2024-02-06T22:50:21.153Z,4.88
2024-02-06T22:52:47.741Z,3.65
2024-02-06T22:55:14.540Z,5.53
2024-02-06T22:57:41.107Z,2.35
2024-02-06T23:00:12.020Z,5.00
2024-02-06T23:02:38.440Z,2.63
2024-02-06T23:05:04.993Z,5.60
2024-02-06T23:07:31.656Z,4.07
2024-02-06T23:09:58.101Z,4.00
2024-02-06T23:12:26.312Z,4.00
2024-02-06T23:14:54.701Z,4.10
2024-02-06T23:17:21.343Z,4.28
2024-02-06T23:19:47.738Z,5.88
2024-02-06T23:22:14.159Z,4.28
2024-02-06T23:24:40.655Z,3.28
2024-02-06T23:27:07.210Z,6.30
2024-02-06T23:29:33.768Z,5.10
2024-02-06T23:32:00.236Z,4.70
2024-02-06T23:34:26.722Z,4.25
2024-02-06T23:36:53.136Z,6.47
2024-02-06T23:39:19.835Z,5.68
2024-02-06T23:41:46.349Z,4.47
2024-02-06T23:44:12.845Z,3.92
2024-02-06T23:46:39.460Z,2.55
2024-02-06T23:49:07.361Z,4.72
2024-02-06T23:51:34.086Z,3.35
2024-02-06T23:54:00.618Z,4.47
2024-02-06T23:56:29.936Z,4.05
2024-02-06T23:58:56.849Z,4.60
